Time;durP1;ratioP1;P1;durP2;ratioP2;P2;SDS_P1;SDS_P2;PMS_P1;PMS_P2;Temp;Humidity;BMP_temperature;BMP_pressure;BME280_temperature;BME280_humidity;BME280_pressure;Samples;Min_cycle;Max_cycle;Signal;HPM_P1;HPM_P2
2022/11/29 00:00:57;;;;;;;;;;;;;;;18.01;62.86;100952.86;2278364;78;51497;-77
2022/11/29 00:03:59;;;;;;;;;;;;;;;18.03;62.84;100954.36;2271181;78;49988;-77
2022/11/29 00:07:00;;;;;;;;;;;;;;;18.06;62.80;100950.00;2271519;78;51186;-76
2022/11/29 00:10:02;;;;;;;;;;;;;;;18.13;62.71;100946.61;2271542;78;50593;-76
2022/11/29 00:13:03;;;;;;;;;;;;;;;18.20;62.57;100943.58;2278473;78;51441;-76
2022/11/29 00:16:06;;;;;;;;;;;;;;;18.25;62.37;100947.91;2246448;78;51052;-74
2022/11/29 00:19:08;;;;;;;;;;;;;;;18.29;62.24;100951.93;2271371;78;50096;-76
2022/11/29 00:22:09;;;;;;;;;;;;;;;18.29;62.18;100954.61;2278443;78;52426;-76
2022/11/29 00:25:11;;;;;;;;;;;;;;;18.28;62.12;100951.58;2278414;78;51395;-76
2022/11/29 00:28:12;;;;;;;;;;;;;;;18.25;62.14;100963.98;2253763;78;50952;-77
2022/11/29 00:31:16;;;;;;;;;;;;;;;18.19;62.23;100949.95;2219936;80;51466;-76
2022/11/29 00:34:17;;;;;;;;;;;;;;;18.17;62.20;100953.31;2219833;80;51420;-76
2022/11/29 00:37:19;;;;;;;;;;;;;;;18.13;62.27;100956.81;2222229;79;50427;-76
2022/11/29 00:40:20;;;;;;;;;;;;;;;18.09;62.42;100963.54;2198245;80;51039;-77
2022/11/29 00:43:22;;;;;;;;;;;;;;;18.06;62.48;100956.69;2220005;80;50728;-76
2022/11/29 00:46:24;;;;;;;;;;;;;;;18.10;62.48;100951.81;2271292;78;50618;-77
2022/11/29 00:49:25;;;;;;;;;;;;;;;18.16;62.34;100955.16;2278352;78;50381;-76
2022/11/29 00:52:27;;;;;;;;;;;;;;;18.23;62.25;100960.13;2246617;78;51992;-76
2022/11/29 00:55:28;;;;;;;;;;;;;;;18.25;62.16;100955.44;2292335;77;50603;-76
2022/11/29 00:58:30;;;;;;;;;;;;;;;18.25;62.10;100956.78;2307128;77;51494;-75
2022/11/29 01:01:32;;;;;;;;;;;;;;;18.21;62.10;100952.80;2307070;77;51483;-76
2022/11/29 01:04:33;;;;;;;;;;;;;;;18.19;62.12;100953.98;2275552;77;50936;-77
2022/11/29 01:07:35;;;;;;;;;;;;;;;18.16;62.16;100956.50;2290534;77;50247;-77
2022/11/29 01:10:36;;;;;;;;;;;;;;;18.13;62.22;100958.16;2238928;78;50162;-76
2022/11/29 01:13:38;;;;;;;;;;;;;;;18.08;62.38;100951.66;2239405;77;50101;-76
2022/11/29 01:16:39;;;;;;;;;;;;;;;18.02;62.60;100952.67;2254067;77;49548;-77
2022/11/29 01:19:41;;;;;;;;;;;;;;;18.04;62.57;100952.52;2268646;78;50203;-76
2022/11/29 01:22:43;;;;;;;;;;;;;;;18.09;62.49;100956.02;2268641;78;50684;-76
2022/11/29 01:25:44;;;;;;;;;;;;;;;18.13;62.37;100954.14;2268480;78;50642;-75
2022/11/29 01:28:46;;;;;;;;;;;;;;;18.22;62.20;100957.64;2249878;78;52432;-75
2022/11/29 01:31:48;;;;;;;;;;;;;;;18.26;62.05;100961.14;2268632;78;50426;-75
2022/11/29 01:34:49;;;;;;;;;;;;;;;18.30;61.89;100966.16;2268566;78;50587;-75
2022/11/29 01:37:51;;;;;;;;;;;;;;;18.29;61.86;100961.30;2298635;77;50367;-75
2022/11/29 01:40:57;;;;;;;;;;;;;;;18.28;61.88;100963.63;2215223;78;51527;-76
2022/11/29 01:44:12;;;;;;;;;;;;;;;18.25;61.92;100965.33;2267669;77;50745;-76
2022/11/29 01:47:14;;;;;;;;;;;;;;;18.18;62.02;100960.32;2268689;78;50756;-76
2022/11/29 01:50:16;;;;;;;;;;;;;;;18.15;62.06;100960.67;2268596;77;51405;-76
2022/11/29 01:53:17;;;;;;;;;;;;;;;18.11;62.23;100956.66;2237915;78;51642;-76
2022/11/29 01:56:19;;;;;;;;;;;;;;;18.03;62.40;100955.70;2250290;77;51539;-76
2022/11/29 01:59:21;;;;;;;;;;;;;;;18.02;62.48;100957.20;2239171;79;51575;-75
2022/11/29 02:02:24;;;;;;;;;;;;;;;18.07;62.42;100952.16;2239172;79;50345;-75
2022/11/29 02:05:26;;;;;;;;;;;;;;;18.15;62.23;100949.96;2240995;78;50724;-75
2022/11/29 02:08:29;;;;;;;;;;;;;;;18.22;62.03;100946.92;2276784;78;51495;-76
2022/11/29 02:11:35;;;;;;;;;;;;;;;18.24;61.93;100953.78;2268630;77;50614;-76
2022/11/29 02:14:42;;;;;;;;;;;;;;;18.24;61.88;100952.44;2267209;77;51409;-76
2022/11/29 02:18:02;;;;;;;;;;;;;;;18.21;61.88;100954.61;2249637;78;52409;-75
2022/11/29 02:21:11;;;;;;;;;;;;;;;18.18;61.93;100952.29;2268589;78;50730;-76
2022/11/29 02:24:21;;;;;;;;;;;;;;;18.14;62.01;100955.00;2268323;77;50247;-76
2022/11/29 02:27:39;;;;;;;;;;;;;;;18.10;62.06;100951.81;2268086;78;50769;-77
2022/11/29 02:30:58;;;;;;;;;;;;;;;18.03;62.30;100951.69;2249041;78;51235;-77
2022/11/29 02:34:07;;;;;;;;;;;;;;;17.98;62.45;100952.70;2268264;77;50659;-77
2022/11/29 02:37:13;;;;;;;;;;;;;;;17.99;62.52;100953.02;2270951;78;51512;-77
2022/11/29 02:40:29;;;;;;;;;;;;;;;18.04;62.42;100958.70;2258424;78;51654;-77
2022/11/29 02:43:49;;;;;;;;;;;;;;;18.12;62.33;100964.53;2247257;78;52736;-77
2022/11/29 02:46:51;;;;;;;;;;;;;;;18.20;62.24;100959.65;2278292;78;50406;-77
2022/11/29 02:49:57;;;;;;;;;;;;;;;18.25;62.06;100962.64;2278387;78;51524;-76
2022/11/29 02:53:01;;;;;;;;;;;;;;;18.26;61.96;100969.19;2278184;77;50727;-78
2022/11/29 02:56:20;;;;;;;;;;;;;;;18.27;61.89;100972.69;2239273;79;50940;-75
2022/11/29 02:59:39;;;;;;;;;;;;;;;18.21;61.94;100974.22;2256504;79;51493;-76
2022/11/29 03:02:59;;;;;;;;;;;;;;;18.17;62.03;100970.20;2256509;78;51377;-76
2022/11/29 03:06:17;;;;;;;;;;;;;;;18.15;62.12;100969.53;2256495;79;51580;-76
2022/11/29 03:09:20;;;;;;;;;;;;;;;18.12;62.14;100975.75;2224259;79;50988;-76
2022/11/29 03:12:33;;;;;;;;;;;;;;;18.05;62.37;100973.74;2256495;78;50183;-76
2022/11/29 03:15:51;;;;;;;;;;;;;;;18.02;62.48;100973.27;2256303;79;51538;-76
2022/11/29 03:18:55;;;;;;;;;;;;;;;18.04;62.48;100978.78;2258933;78;50233;-76
2022/11/29 03:22:13;;;;;;;;;;;;;;;18.13;62.26;100984.11;2175999;80;51763;-77
2022/11/29 03:25:20;;;;;;;;;;;;;;;18.17;62.12;100984.11;2220089;80;51579;-77
2022/11/29 03:28:22;;;;;;;;;;;;;;;18.16;62.10;100984.62;2214288;80;50264;-77
2022/11/29 03:31:28;;;;;;;;;;;;;;;18.15;62.05;100986.95;2220011;80;50648;-77
2022/11/29 03:34:32;;;;;;;;;;;;;;;18.14;62.11;100991.16;2188466;79;52468;-77
2022/11/29 03:37:41;;;;;;;;;;;;;;;18.11;62.17;100992.33;2254519;78;50254;-79
2022/11/29 03:40:45;;;;;;;;;;;;;;;18.08;62.17;100989.14;2256581;79;50629;-76
2022/11/29 03:43:57;;;;;;;;;;;;;;;18.03;62.26;100985.16;2257087;78;50662;-78
2022/11/29 03:47:03;;;;;;;;;;;;;;;18.00;62.40;100999.36;2235306;78;52482;-77
2022/11/29 03:50:07;;;;;;;;;;;;;;;17.95;62.52;100996.36;2264713;77;51524;-77
2022/11/29 03:53:16;;;;;;;;;;;;;;;17.98;62.46;101000.03;2264753;77;51556;-76
2022/11/29 03:56:22;;;;;;;;;;;;;;;18.03;62.43;100999.02;2260064;77;50042;-76
2022/11/29 03:59:25;;;;;;;;;;;;;;;18.08;62.29;101006.03;2214988;79;51082;-77
2022/11/29 04:02:44;;;;;;;;;;;;;;;18.15;62.14;101002.19;2248922;79;51446;-77
2022/11/29 04:05:53;;;;;;;;;;;;;;;18.23;61.91;101009.68;2249355;79;50460;-79
2022/11/29 04:09:13;;;;;;;;;;;;;;;18.24;61.81;100999.83;2249683;79;50274;-77
2022/11/29 04:12:16;;;;;;;;;;;;;;;18.23;61.74;101001.65;2218480;79;51701;-77
2022/11/29 04:15:36;;;;;;;;;;;;;;;18.20;61.79;100997.15;2262212;78;50709;-77
2022/11/29 04:18:56;;;;;;;;;;;;;;;18.17;61.79;101002.86;2259435;78;50749;-77
2022/11/29 04:22:15;;;;;;;;;;;;;;;18.13;61.88;100994.81;2259128;78;50643;-77
2022/11/29 04:25:24;;;;;;;;;;;;;;;18.11;61.94;100999.50;2229394;78;51155;-77
2022/11/29 04:28:34;;;;;;;;;;;;;;;18.05;62.10;101007.72;2259300;78;50677;-77
2022/11/29 04:31:54;;;;;;;;;;;;;;;18.01;62.19;101005.91;2259369;78;50744;-77
2022/11/29 04:35:00;;;;;;;;;;;;;;;18.02;62.24;101006.73;2259248;78;51545;-78
2022/11/29 04:38:03;;;;;;;;;;;;;;;18.08;62.22;101001.19;2212372;78;49853;-77
2022/11/29 04:41:12;;;;;;;;;;;;;;;18.13;62.06;101009.55;2262873;78;50408;-75
2022/11/29 04:44:18;;;;;;;;;;;;;;;18.15;61.97;101003.02;2251539;78;51475;-77
2022/11/29 04:47:38;;;;;;;;;;;;;;;18.15;61.98;101008.38;2259002;78;50764;-78
2022/11/29 04:50:44;;;;;;;;;;;;;;;18.14;61.93;101009.90;2226837;78;52540;-77
2022/11/29 04:53:47;;;;;;;;;;;;;;;18.11;61.98;101013.75;2258910;78;50236;-78
2022/11/29 04:56:50;;;;;;;;;;;;;;;18.09;61.96;101010.91;2267025;78;50356;-77
2022/11/29 04:59:53;;;;;;;;;;;;;;;18.05;62.01;101016.59;2287479;78;51441;-77
2022/11/29 05:03:02;;;;;;;;;;;;;;;18.00;62.20;101015.43;2263303;78;50939;-75
2022/11/29 05:06:08;;;;;;;;;;;;;;;17.95;62.31;101015.94;2286948;78;50310;-73
2022/11/29 05:09:20;;;;;;;;;;;;;;;17.98;62.36;101020.97;2287099;78;52278;-73
2022/11/29 05:12:32;;;;;;;;;;;;;;;18.02;62.38;101018.78;2280563;77;51604;-73
2022/11/29 05:15:51;;;;;;;;;;;;;;;18.10;62.22;101018.76;2260461;77;51777;-73
2022/11/29 05:19:11;;;;;;;;;;;;;;;18.18;61.98;101021.92;2298837;77;51609;-73
2022/11/29 05:22:30;;;;;;;;;;;;;;;18.20;61.87;101018.58;2298902;77;50651;-74
2022/11/29 05:25:33;;;;;;;;;;;;;;;18.22;61.77;101028.62;2298688;77;51594;-73
2022/11/29 05:28:50;;;;;;;;;;;;;;;18.18;61.90;101025.94;2265324;77;49594;-74
2022/11/29 05:32:05;;;;;;;;;;;;;;;18.16;61.87;101028.81;2298841;77;50475;-72
2022/11/29 05:35:27;;;;;;;;;;;;;;;18.14;61.94;101039.36;2298824;77;51475;-73
2022/11/29 05:38:36;;;;;;;;;;;;;;;18.11;62.02;101043.69;2267191;78;50657;-76
2022/11/29 05:41:52;;;;;;;;;;;;;;;18.04;62.18;101047.06;2263315;77;51941;-75
2022/11/29 05:44:55;;;;;;;;;;;;;;;17.99;62.37;101044.56;2286975;78;51412;-77
2022/11/29 05:48:01;;;;;;;;;;;;;;;17.97;62.30;101055.43;2287266;78;50730;-74
2022/11/29 05:51:10;;;;;;;;;;;;;;;18.01;62.08;101050.08;2287287;78;51458;-74
2022/11/29 05:54:14;;;;;;;;;;;;;;;18.07;61.91;101052.58;2262839;78;52543;-75
2022/11/29 05:57:23;;;;;;;;;;;;;;;18.15;61.55;101065.13;2287106;78;50638;-74
2022/11/29 06:00:26;;;;;;;;;;;;;;;18.18;61.36;101058.08;2286499;77;51542;-75
2022/11/29 06:03:29;;;;;;;;;;;;;;;18.18;61.41;101059.42;2286838;77;50250;-74
2022/11/29 06:06:45;;;;;;;;;;;;;;;18.17;61.40;101060.44;2254928;78;51767;-77
2022/11/29 06:10:05;;;;;;;;;;;;;;;18.15;61.37;101070.48;2249785;77;50736;-76
2022/11/29 06:13:21;;;;;;;;;;;;;;;18.13;61.35;101063.11;2264025;77;51408;-74
2022/11/29 06:16:38;;;;;;;;;;;;;;;18.10;61.43;101082.20;2264153;77;50336;-74
2022/11/29 06:19:44;;;;;;;;;;;;;;;18.05;61.56;101086.20;2265385;77;50929;-76
2022/11/29 06:22:49;;;;;;;;;;;;;;;17.98;63.66;101085.23;2298921;77;50263;-74
2022/11/29 06:26:01;;;;;;;;;;;;;;;18.04;62.04;101083.20;2298601;77;51493;-77
2022/11/29 06:29:05;;;;;;;;;;;;;;;18.05;62.09;101093.41;2298878;77;50386;-75
2022/11/29 06:32:08;;;;;;;;;;;;;;;18.14;61.91;101096.42;2265555;77;52375;-75
2022/11/29 06:35:14;;;;;;;;;;;;;;;18.21;61.72;101104.13;2297348;77;51428;-73
2022/11/29 06:38:23;;;;;;;;;;;;;;;18.26;61.58;101097.76;2249799;79;51466;-73
2022/11/29 06:41:25;;;;;;;;;;;;;;;18.27;61.53;101106.62;2249707;78;51599;-74
2022/11/29 06:44:26;;;;;;;;;;;;;;;18.24;61.49;101101.11;2241230;78;51428;-74
2022/11/29 06:47:30;;;;;;;;;;;;;;;18.25;61.44;101100.09;2256257;78;50106;-76
2022/11/29 06:50:33;;;;;;;;;;;;;;;18.24;61.47;101105.63;2276109;78;50607;-76
2022/11/29 06:53:42;;;;;;;;;;;;;;;18.19;61.65;101108.81;2272210;78;51347;-76
2022/11/29 06:56:45;;;;;;;;;;;;;;;18.18;61.81;101117.00;2225428;78;52387;-76
2022/11/29 06:59:52;;;;;;;;;;;;;;;18.15;61.86;101120.86;2265902;78;51412;-75
2022/11/29 07:02:55;;;;;;;;;;;;;;;18.10;62.05;101129.06;2266845;78;50413;-76
2022/11/29 07:05:57;;;;;;;;;;;;;;;18.14;62.11;101123.72;2266489;78;51757;-75
2022/11/29 07:09:00;;;;;;;;;;;;;;;18.18;62.03;101122.36;2251037;77;51589;-76
2022/11/29 07:12:02;;;;;;;;;;;;;;;18.23;61.94;101130.72;2305218;77;50694;-76
2022/11/29 07:15:04;;;;;;;;;;;;;;;18.20;61.98;101128.39;2262831;77;50096;-76
2022/11/29 07:18:23;;;;;;;;;;;;;;;18.19;61.93;101127.56;2274363;77;50224;-76
2022/11/29 07:21:29;;;;;;;;;;;;;;;18.18;61.88;101137.09;2275632;77;50007;-77
2022/11/29 07:24:48;;;;;;;;;;;;;;;18.15;61.92;101128.06;2305837;77;51562;-76
2022/11/29 07:27:57;;;;;;;;;;;;;;;18.13;61.92;101130.06;2307054;77;50361;-77
2022/11/29 07:31:10;;;;;;;;;;;;;;;18.08;61.98;101130.56;2307338;77;51517;-75
2022/11/29 07:34:22;;;;;;;;;;;;;;;18.07;62.04;101142.28;2275423;77;52493;-76
2022/11/29 07:37:38;;;;;;;;;;;;;;;18.02;62.13;101137.43;2286253;77;51545;-77
2022/11/29 07:40:41;;;;;;;;;;;;;;;18.04;62.13;101137.27;2264684;78;50629;-77
2022/11/29 07:43:53;;;;;;;;;;;;;;;18.12;61.99;101143.13;2264518;77;53231;-77
2022/11/29 07:46:55;;;;;;;;;;;;;;;18.16;61.83;101145.31;2185091;77;51860;-76
2022/11/29 07:49:57;;;;;;;;;;;;;;;18.22;61.75;101153.17;2307272;76;51978;-77
2022/11/29 07:52:58;;;;;;;;;;;;;;;18.27;61.64;101161.54;2287514;77;50738;-76
2022/11/29 07:56:00;;;;;;;;;;;;;;;18.27;61.62;101154.84;2307021;76;50242;-75
2022/11/29 07:59:01;;;;;;;;;;;;;;;18.28;61.55;101163.20;2286989;77;50022;-76
2022/11/29 08:02:03;;;;;;;;;;;;;;;18.26;61.50;101170.56;2301538;77;50713;-76
2022/11/29 08:05:05;;;;;;;;;;;;;;;18.25;61.50;101170.24;2301347;77;51522;-75
2022/11/29 08:08:06;;;;;;;;;;;;;;;18.22;61.52;101161.20;2299335;77;50223;-75
2022/11/29 08:11:11;;;;;;;;;;;;;;;18.19;61.54;101161.55;2280956;77;50226;-75
2022/11/29 08:14:13;;;;;;;;;;;;;;;18.17;61.52;101164.38;2280802;77;50716;-75
2022/11/29 08:17:14;;;;;;;;;;;;;;;18.12;61.62;101167.23;2301585;77;50361;-76
2022/11/29 08:20:16;;;;;;;;;;;;;;;18.06;61.82;101176.78;2301557;77;50200;-76
2022/11/29 08:23:18;;;;;;;;;;;;;;;18.09;61.78;101180.97;2280639;77;50360;-75
2022/11/29 08:26:20;;;;;;;;;;;;;;;18.19;61.55;101173.60;2301678;77;50719;-76
2022/11/29 08:29:22;;;;;;;;;;;;;;;18.22;61.42;101173.27;2268285;78;52315;-76
2022/11/29 08:32:24;;;;;;;;;;;;;;;18.23;61.35;101178.94;2263500;78;51571;-75
2022/11/29 08:35:26;;;;;;;;;;;;;;;18.23;61.30;101188.31;2274946;77;50109;-75
2022/11/29 08:38:27;;;;;;;;;;;;;;;18.23;61.25;101184.30;2271860;77;50671;-75
2022/11/29 08:41:29;;;;;;;;;;;;;;;18.21;61.26;101184.96;2309945;77;51386;-75
2022/11/29 08:44:31;;;;;;;;;;;;;;;18.17;61.26;101182.30;2311610;77;50273;-75
2022/11/29 08:47:35;;;;;;;;;;;;;;;18.17;61.24;101191.67;2277412;77;51442;-73
2022/11/29 08:50:37;;;;;;;;;;;;;;;18.15;61.22;101186.98;2275050;77;50747;-73
2022/11/29 08:53:41;;;;;;;;;;;;;;;18.06;61.43;101186.98;2280108;76;50751;-73
2022/11/29 08:56:42;;;;;;;;;;;;;;;18.05;61.60;101186.63;2302083;76;50363;-73
2022/11/29 08:59:44;;;;;;;;;;;;;;;18.09;61.53;101181.80;2258010;77;51151;-73
2022/11/29 09:02:46;;;;;;;;;;;;;;;18.22;61.29;101194.69;2287808;77;50217;-73
2022/11/29 09:05:47;;;;;;;;;;;;;;;18.30;61.15;101183.97;2280811;77;50734;-74
2022/11/29 09:08:49;;;;;;;;;;;;;;;18.38;60.98;101190.66;2287980;77;51405;-73
2022/11/29 09:11:50;;;;;;;;;;;;;;;18.45;60.74;101195.68;2262298;77;52613;-73
2022/11/29 09:14:52;;;;;;;;;;;;;;;18.48;60.61;101196.67;2289092;77;51361;-73
2022/11/29 09:17:53;;;;;;;;;;;;;;;18.46;60.65;101200.02;2289430;77;51553;-73
2022/11/29 09:20:55;;;;;;;;;;;;;;;18.45;60.64;101198.87;2287567;77;50344;-73
2022/11/29 09:23:58;;;;;;;;;;;;;;;18.42;60.63;101204.06;2258230;77;51350;-74
2022/11/29 09:27:00;;;;;;;;;;;;;;;18.40;60.63;101206.06;2287610;77;50760;-74
2022/11/29 09:30:01;;;;;;;;;;;;;;;18.35;60.68;101205.73;2297201;77;50746;-74
2022/11/29 09:33:03;;;;;;;;;;;;;;;18.32;60.70;101204.73;2312154;77;50636;-74
2022/11/29 09:36:05;;;;;;;;;;;;;;;18.34;60.65;101205.41;2235503;77;51263;-74
2022/11/29 09:39:08;;;;;;;;;;;;;;;18.25;60.93;101211.25;2288180;77;50260;-74
2022/11/29 09:42:26;;;;;;;;;;;;;;;18.32;60.86;101210.09;2282427;77;51474;-74
2022/11/29 09:45:29;;;;;;;;;;;;;;;18.39;60.79;101210.24;2282340;77;51439;-74
2022/11/29 09:48:41;;;;;;;;;;;;;;;18.43;60.64;101209.74;2253883;77;50101;-74
2022/11/29 09:51:44;;;;;;;;;;;;;;;18.44;60.58;101212.75;2289079;77;51484;-74
2022/11/29 09:55:04;;;;;;;;;;;;;;;18.41;60.67;101210.41;2289271;77;51581;-73
2022/11/29 09:58:07;;;;;;;;;;;;;;;18.40;60.62;101208.75;2289391;77;50676;-73
2022/11/29 10:01:10;;;;;;;;;;;;;;;18.37;60.66;101207.75;2278829;78;51450;-73
2022/11/29 10:04:13;;;;;;;;;;;;;;;18.34;60.64;101208.09;2281538;77;50311;-74
2022/11/29 10:07:28;;;;;;;;;;;;;;;18.34;60.60;101212.11;2312281;77;51636;-74
2022/11/29 10:10:31;;;;;;;;;;;;;;;18.31;60.65;101216.44;2311507;77;50783;-74
2022/11/29 10:13:35;;;;;;;;;;;;;;;18.18;60.86;101216.10;2312259;77;50440;-74
2022/11/29 10:16:38;;;;;;;;;;;;;;;18.19;60.94;101220.47;2238053;78;51076;-73
2022/11/29 10:19:44;;;;;;;;;;;;;;;18.26;60.81;101216.96;2267060;77;51580;-73
2022/11/29 10:22:48;;;;;;;;;;;;;;;18.35;60.61;101215.11;2281177;77;51602;-73
2022/11/29 10:25:53;;;;;;;;;;;;;;;18.41;60.49;101220.30;2289073;77;51554;-72
2022/11/29 10:28:56;;;;;;;;;;;;;;;18.47;60.36;101223.63;2259626;78;51008;-73
2022/11/29 10:32:03;;;;;;;;;;;;;;;18.53;60.19;101218.12;2241457;79;51760;-73
2022/11/29 10:35:01;;;;;;;;;;;;;;;18.53;60.17;101222.14;2241784;78;22364;-73
2022/11/29 10:38:03;;;;;;;;;;;;;;;18.52;60.17;101223.13;2243369;77;50422;-73
2022/11/29 10:41:06;;;;;;;;;;;;;;;18.49;60.18;101225.13;2238944;78;52138;-74
2022/11/29 10:44:09;;;;;;;;;;;;;;;18.47;60.15;101225.83;2279134;78;51719;-74
2022/11/29 10:47:10;;;;;;;;;;;;;;;18.43;60.24;101239.22;2279252;78;50519;-73
2022/11/29 10:50:22;;;;;;;;;;;;;;;18.41;60.24;101232.35;2279140;78;50467;-73
2022/11/29 10:53:25;;;;;;;;;;;;;;;18.37;60.32;101232.34;2246861;78;50193;-74
2022/11/29 10:56:29;;;;;;;;;;;;;;;18.35;60.33;101237.05;2279146;78;50780;-74
2022/11/29 10:59:31;;;;;;;;;;;;;;;18.31;60.49;101233.02;2288582;77;22308;-74
2022/11/29 11:02:33;;;;;;;;;;;;;;;18.34;60.48;101236.22;2307611;77;51561;-74
2022/11/29 11:05:35;;;;;;;;;;;;;;;18.43;60.30;101237.88;2262688;77;50104;-73
2022/11/29 11:08:37;;;;;;;;;;;;;;;18.49;60.10;101228.33;2277619;77;50675;-74
2022/11/29 11:11:38;;;;;;;;;;;;;;;18.48;60.10;101228.84;2297424;77;50298;-75
2022/11/29 11:14:40;;;;;;;;;;;;;;;18.45;60.14;101226.50;2313014;77;50293;-73
2022/11/29 11:17:43;;;;;;;;;;;;;;;18.42;60.18;101226.84;2285423;77;51221;-74
2022/11/29 11:20:46;;;;;;;;;;;;;;;18.41;60.15;101238.55;2263283;77;50322;-74
2022/11/29 11:23:52;;;;;;;;;;;;;;;18.37;60.20;101234.54;2306695;77;50184;-74
2022/11/29 11:26:54;;;;;;;;;;;;;;;18.38;60.14;101234.03;2308693;76;51315;-73
2022/11/29 11:29:55;;;;;;;;;;;;;;;18.35;60.10;101232.52;2277934;77;51098;-74
2022/11/29 11:33:18;;;;;;;;;;;;;;;18.28;60.34;101238.20;2303979;76;51306;-74
2022/11/29 11:36:21;;;;;;;;;;;;;;;18.27;60.38;101237.37;2308167;77;51470;-74
2022/11/29 11:39:23;;;;;;;;;;;;;;;18.35;60.27;101241.91;2307985;77;50779;-74
2022/11/29 11:42:37;;;;;;;;;;;;;;;18.42;60.12;101241.58;2276980;77;51675;-74
2022/11/29 11:45:39;;;;;;;;;;;;;;;18.49;60.01;101247.08;2290946;77;50851;-73
2022/11/29 11:48:41;;;;;;;;;;;;;;;18.53;59.92;101236.38;2300117;77;50121;-73
2022/11/29 11:51:42;;;;;;;;;;;;;;;18.56;59.82;101233.35;2324393;76;51818;-72
2022/11/29 11:54:45;;;;;;;;;;;;;;;18.60;59.71;101243.22;2275878;77;51605;-73
2022/11/29 11:57:48;;;;;;;;;;;;;;;18.60;59.69;101244.56;2307527;77;50373;-73
2022/11/29 12:00:59;;;;;;;;;;;;;;;18.53;59.84;101234.20;2297892;76;50305;-74
2022/11/29 12:04:17;;;;;;;;;;;;;;;18.49;59.89;101250.59;2247210;78;51595;-72
2022/11/29 12:07:20;;;;;;;;;;;;;;;18.46;59.93;101242.06;2234929;77;51035;-73
2022/11/29 12:10:26;;;;;;;;;;;;;;;18.43;59.94;101249.94;2294525;77;50902;-73
2022/11/29 12:13:28;;;;;;;;;;;;;;;18.40;59.93;101247.59;2300607;77;51377;-73
2022/11/29 12:16:31;;;;;;;;;;;;;;;18.37;60.04;101255.11;2301702;77;50485;-73
2022/11/29 12:19:34;;;;;;;;;;;;;;;18.38;60.12;101246.92;2278536;77;51057;-74
2022/11/29 12:22:41;;;;;;;;;;;;;;;18.45;60.04;101256.48;2299651;77;50808;-75
2022/11/29 12:25:47;;;;;;;;;;;;;;;18.53;59.86;101258.33;2299398;77;50402;-75
2022/11/29 12:28:49;;;;;;;;;;;;;;;18.58;59.73;101246.59;2303589;77;51650;-75
2022/11/29 12:31:58;;;;;;;;;;;;;;;18.60;59.64;101253.94;2233924;77;51224;-75
2022/11/29 12:35:02;;;;;;;;;;;;;;;18.57;59.63;101260.98;2299280;77;51483;-75
2022/11/29 12:38:22;;;;;;;;;;;;;;;18.51;59.70;101258.48;2298385;77;51506;-74
2022/11/29 12:41:31;;;;;;;;;;;;;;;18.46;59.77;101262.99;2299530;77;52158;-75
2022/11/29 12:44:43;;;;;;;;;;;;;;;18.41;59.85;101264.50;2265458;77;51799;-75
2022/11/29 12:47:56;;;;;;;;;;;;;;;18.36;59.93;101270.86;2273649;77;51523;-75
2022/11/29 12:51:17;;;;;;;;;;;;;;;18.37;59.85;101274.73;2285135;77;50130;-75
2022/11/29 12:54:37;;;;;;;;;;;;;;;18.31;60.02;101272.70;2305787;77;51576;-75
2022/11/29 12:57:40;;;;;;;;;;;;;;;18.31;60.10;101280.73;2275104;77;49615;-76
2022/11/29 13:00:43;;;;;;;;;;;;;;;18.39;59.89;101281.24;2304322;77;50302;-75
2022/11/29 13:03:53;;;;;;;;;;;;;;;18.47;59.67;101288.80;2298974;77;50870;-74
2022/11/29 13:07:15;;;;;;;;;;;;;;;18.52;59.65;101289.62;2260918;78;50722;-75
2022/11/29 13:10:18;;;;;;;;;;;;;;;18.57;59.54;101292.64;2160089;81;51225;-74
2022/11/29 13:13:27;;;;;;;;;;;;;;;18.60;59.42;101290.13;2185825;81;51388;-75
2022/11/29 13:16:47;;;;;;;;;;;;;;;18.60;59.37;101295.01;2182481;81;50676;-74
2022/11/29 13:19:59;;;;;;;;;;;;;;;18.57;59.38;101300.67;2194845;81;51465;-75
2022/11/29 13:23:05;;;;;;;;;;;;;;;18.53;59.43;101295.84;2224520;79;51409;-75
2022/11/29 13:26:08;;;;;;;;;;;;;;;18.49;59.50;101296.15;2167119;81;50424;-75
2022/11/29 13:29:12;;;;;;;;;;;;;;;18.46;59.51;101296.48;2188485;80;50333;-74
2022/11/29 13:32:17;;;;;;;;;;;;;;;18.40;59.63;101289.64;2181722;79;51612;-74
2022/11/29 13:35:20;;;;;;;;;;;;;;;18.38;59.65;101296.48;2153595;81;51796;-74
2022/11/29 13:38:41;;;;;;;;;;;;;;;18.34;59.88;101301.86;2195072;80;50473;-75
2022/11/29 13:41:47;;;;;;;;;;;;;;;18.40;59.76;101301.69;2263009;77;51588;-75
2022/11/29 13:45:00;;;;;;;;;;;;;;;18.48;59.52;101307.05;2299650;77;51571;-74
2022/11/29 13:48:02;;;;;;;;;;;;;;;18.57;59.33;101301.19;2265873;77;50970;-75
2022/11/29 13:51:23;;;;;;;;;;;;;;;18.59;58.87;101309.91;2265140;77;51501;-75
2022/11/29 13:54:31;;;;;;;;;;;;;;;18.58;58.84;101308.23;2299662;77;52096;-74
2022/11/29 13:57:51;;;;;;;;;;;;;;;18.58;58.77;101306.91;2299598;77;52600;-74
2022/11/29 14:00:53;;;;;;;;;;;;;;;18.57;58.84;101313.25;2238173;77;51834;-75
2022/11/29 14:04:08;;;;;;;;;;;;;;;18.48;58.98;101305.20;2288873;77;50472;-74
2022/11/29 14:07:15;;;;;;;;;;;;;;;18.46;59.00;101305.87;2286820;77;50821;-76
2022/11/29 14:10:18;;;;;;;;;;;;;;;18.43;59.07;101316.92;2289007;77;51703;-76
2022/11/29 14:13:20;;;;;;;;;;;;;;;18.41;59.00;101308.20;2258730;77;51195;-75
2022/11/29 14:16:32;;;;;;;;;;;;;;;18.38;59.17;101312.56;2289229;77;51455;-75
2022/11/29 14:19:35;;;;;;;;;;;;;;;18.39;59.20;101319.59;2276995;77;50096;-74
2022/11/29 14:22:36;;;;;;;;;;;;;;;18.48;59.05;101321.80;2289540;77;51550;-74
2022/11/29 14:25:39;;;;;;;;;;;;;;;18.54;58.85;101322.45;2234156;77;52583;-75
2022/11/29 14:28:40;;;;;;;;;;;;;;;18.59;58.77;101325.98;2289458;77;50705;-76
2022/11/29 14:31:49;;;;;;;;;;;;;;;18.65;58.60;101327.98;2258805;77;51436;-74
2022/11/29 14:35:08;;;;;;;;;;;;;;;18.69;58.50;101332.02;2283395;77;50406;-74
2022/11/29 14:38:24;;;;;;;;;;;;;;;18.68;58.41;101336.55;2224341;77;51809;-74
2022/11/29 14:41:27;;;;;;;;;;;;;;;18.61;58.55;101326.66;2281007;76;50771;-75
2022/11/29 14:44:29;;;;;;;;;;;;;;;18.61;58.55;101332.02;2289436;77;50898;-75
2022/11/29 14:47:33;;;;;;;;;;;;;;;18.55;58.64;101327.31;2289382;77;50437;-75
2022/11/29 14:50:35;;;;;;;;;;;;;;;18.48;58.76;101333.34;2258334;77;52547;-74
2022/11/29 14:53:37;;;;;;;;;;;;;;;18.44;58.78;101336.00;2289574;76;50503;-75
2022/11/29 14:56:43;;;;;;;;;;;;;;;18.47;58.68;101339.72;2289732;77;51537;-75
2022/11/29 14:59:46;;;;;;;;;;;;;;;18.45;58.79;101348.92;2289696;77;50288;-74
2022/11/29 15:02:50;;;;;;;;;;;;;;;18.49;58.73;101341.70;2267057;77;52417;-74
2022/11/29 15:05:59;;;;;;;;;;;;;;;18.55;58.68;101340.71;2302167;77;50443;-75
2022/11/29 15:09:02;;;;;;;;;;;;;;;18.60;58.54;101347.75;2287924;77;50836;-76
2022/11/29 15:12:05;;;;;;;;;;;;;;;18.68;58.38;101349.13;2301327;77;50277;-75
2022/11/29 15:15:25;;;;;;;;;;;;;;;18.73;58.16;101349.46;2301816;77;50283;-75
2022/11/29 15:18:34;;;;;;;;;;;;;;;18.71;58.17;101354.14;2301897;77;50287;-76
2022/11/29 15:21:44;;;;;;;;;;;;;;;18.67;58.24;101358.98;2302024;77;51437;-76
2022/11/29 15:24:49;;;;;;;;;;;;;;;18.62;58.34;101353.79;2268299;77;51601;-76
2022/11/29 15:27:52;;;;;;;;;;;;;;;18.58;58.43;101357.83;2256245;77;49749;-74
2022/11/29 15:31:04;;;;;;;;;;;;;;;18.52;58.54;101358.47;2286604;77;50173;-76
2022/11/29 15:34:06;;;;;;;;;;;;;;;18.47;58.60;101366.52;2301405;77;50431;-75
2022/11/29 15:37:09;;;;;;;;;;;;;;;18.49;58.52;101366.33;2301648;77;50300;-76
2022/11/29 15:40:15;;;;;;;;;;;;;;;18.45;58.70;101371.70;2267371;77;51763;-76
2022/11/29 15:43:18;;;;;;;;;;;;;;;18.48;58.63;101370.86;2281049;77;51505;-75
2022/11/29 15:46:21;;;;;;;;;;;;;;;18.57;58.54;101373.55;2285129;77;51541;-76
2022/11/29 15:49:23;;;;;;;;;;;;;;;18.60;58.41;101381.25;2301640;77;51529;-75
2022/11/29 15:52:29;;;;;;;;;;;;;;;18.67;58.20;101377.75;2256262;77;51738;-76
2022/11/29 15:55:31;;;;;;;;;;;;;;;18.71;58.06;101384.47;2301710;77;50225;-77